createdAt,value
2023-01-17T00:00:35.025Z,61.40
2023-01-17T00:03:23.153Z,43.33
2023-01-17T00:06:11.242Z,46.25
2023-01-17T00:08:58.197Z,41.92
2023-01-17T00:11:27.820Z,45.28
2023-01-17T00:13:57.178Z,40.88
2023-01-17T00:16:26.233Z,38.95
2023-01-17T00:19:15.161Z,34.95
2023-01-17T00:22:03.147Z,35.67
2023-01-17T00:24:51.095Z,43.65
2023-01-17T00:27:19.065Z,42.67
2023-01-17T00:29:47.180Z,36.20
2023-01-17T00:32:15.195Z,42.55
2023-01-17T00:34:43.371Z,44.63
2023-01-17T00:37:12.727Z,44.53
2023-01-17T00:39:40.893Z,41.92
2023-01-17T00:42:08.846Z,37.72
2023-01-17T00:44:55.611Z,33.45
2023-01-17T00:47:42.028Z,35.08
2023-01-17T00:50:29.568Z,38.25
2023-01-17T00:53:21.388Z,37.45
2023-01-17T00:56:08.279Z,37.85
2023-01-17T00:58:55.134Z,34.78
2023-01-17T01:01:42.180Z,40.90
2023-01-17T01:04:29.056Z,38.42
2023-01-17T01:07:16.161Z,42.50
2023-01-17T01:10:05.008Z,38.13
2023-01-17T01:12:52.064Z,40.83
2023-01-17T01:15:38.528Z,35.58
2023-01-17T01:18:26.620Z,38.42
2023-01-17T01:21:13.266Z,41.50
2023-01-17T01:24:00.118Z,40.13
2023-01-17T01:26:47.986Z,37.58
2023-01-17T01:29:34.889Z,34.47
2023-01-17T01:32:22.011Z,45.17
2023-01-17T01:34:51.393Z,35.65
2023-01-17T01:37:20.605Z,44.22
2023-01-17T01:39:50.032Z,42.58
2023-01-17T01:42:20.773Z,36.22
2023-01-17T01:44:53.141Z,38.70
2023-01-17T01:47:28.252Z,38.47
2023-01-17T01:49:59.746Z,38.20
2023-01-17T01:52:31.420Z,39.00
2023-01-17T01:55:04.443Z,37.80
2023-01-17T01:57:41.141Z,45.78
2023-01-17T02:00:17.004Z,37.42
2023-01-17T02:02:49.850Z,35.40
2023-01-17T02:05:22.195Z,34.90
2023-01-17T02:07:56.285Z,38.17
2023-01-17T02:10:25.818Z,40.85
2023-01-17T02:12:57.260Z,42.05
2023-01-17T02:15:33.942Z,42.42
2023-01-17T02:18:14.279Z,34.28
2023-01-17T02:21:03.926Z,37.45
2023-01-17T02:24:15.702Z,36.45
2023-01-17T02:27:02.678Z,34.80
2023-01-17T02:30:04.143Z,36.95
2023-01-17T02:32:46.599Z,35.97
2023-01-17T02:35:25.564Z,35.17
2023-01-17T02:38:01.629Z,32.55
2023-01-17T02:40:36.885Z,32.22
2023-01-17T02:43:11.229Z,34.47
2023-01-17T02:45:40.440Z,38.38
2023-01-17T02:48:14.592Z,36.70
2023-01-17T02:50:58.884Z,32.05
2023-01-17T02:53:43.033Z,31.35
2023-01-17T02:56:21.203Z,40.22
2023-01-17T02:59:07.353Z,33.88
2023-01-17T03:01:46.484Z,34.70
2023-01-17T03:04:22.890Z,36.20
2023-01-17T03:06:56.710Z,35.90
2023-01-17T03:09:29.022Z,32.47
2023-01-17T03:12:00.510Z,35.15
2023-01-17T03:14:32.544Z,28.98
2023-01-17T03:17:01.825Z,28.33
2023-01-17T03:19:32.603Z,25.50
2023-01-17T03:22:02.565Z,29.25
2023-01-17T03:24:31.935Z,29.35
2023-01-17T03:27:01.121Z,32.80
2023-01-17T03:29:30.485Z,31.55
2023-01-17T03:31:59.781Z,33.63
2023-01-17T03:34:31.070Z,31.27
2023-01-17T03:37:00.322Z,28.50
2023-01-17T03:39:29.927Z,29.05
2023-01-17T03:41:59.062Z,30.23
2023-01-17T03:44:28.419Z,25.90
2023-01-17T03:46:57.791Z,27.58
2023-01-17T03:49:27.162Z,26.48
2023-01-17T03:51:57.609Z,27.15
2023-01-17T03:54:27.037Z,29.27
2023-01-17T03:56:56.085Z,26.00
2023-01-17T03:59:25.821Z,27.38
2023-01-17T04:01:55.049Z,25.80
2023-01-17T04:04:24.779Z,29.20
2023-01-17T04:06:54.667Z,24.90
2023-01-17T04:09:25.447Z,22.92
2023-01-17T04:11:55.079Z,25.73
2023-01-17T04:14:24.508Z,24.70
2023-01-17T04:16:54.159Z,27.15
2023-01-17T04:21:52.587Z,27.03
2023-01-17T04:24:21.918Z,23.95
2023-01-17T04:26:52.437Z,23.80
2023-01-17T04:29:22.129Z,26.35
2023-01-17T04:31:51.359Z,25.92
2023-01-17T04:34:20.921Z,21.52
2023-01-17T04:36:50.141Z,20.15
2023-01-17T04:39:19.630Z,23.33
2023-01-17T04:41:48.713Z,23.83
2023-01-17T04:44:19.517Z,23.58
2023-01-17T04:46:48.671Z,27.30
2023-01-17T04:49:18.133Z,25.33
2023-01-17T04:51:47.332Z,23.08
2023-01-17T04:54:16.708Z,22.17
2023-01-17T04:56:45.923Z,26.10
2023-01-17T04:59:15.286Z,26.27
2023-01-17T05:01:46.133Z,21.73
2023-01-17T05:04:17.249Z,28.80
2023-01-17T05:06:46.465Z,24.08
2023-01-17T05:09:15.840Z,26.33
2023-01-17T05:11:45.324Z,27.77
2023-01-17T05:14:14.792Z,25.98
2023-01-17T05:16:45.262Z,28.33
2023-01-17T05:19:14.851Z,23.45
2023-01-17T05:21:43.875Z,26.08
2023-01-17T05:24:13.344Z,24.40
2023-01-17T05:26:43.313Z,26.80
2023-01-17T05:29:13.122Z,27.95
2023-01-17T05:31:42.165Z,24.60
2023-01-17T05:34:13.128Z,25.83
2023-01-17T05:36:42.401Z,28.30
2023-01-17T05:39:11.883Z,19.63
2023-01-17T05:41:41.054Z,26.27
2023-01-17T05:44:10.428Z,29.00
2023-01-17T05:46:39.926Z,23.85
2023-01-17T05:49:09.362Z,27.83
2023-01-17T05:51:39.959Z,26.20
2023-01-17T05:54:09.722Z,26.17
2023-01-17T05:56:38.920Z,27.65
2023-01-17T05:59:08.260Z,23.67
2023-01-17T06:01:37.967Z,26.17
2023-01-17T06:04:07.431Z,26.58
2023-01-17T06:06:39.723Z,27.50
2023-01-17T06:09:09.313Z,25.65
2023-01-17T06:11:38.721Z,30.08
2023-01-17T06:14:09.733Z,26.08
2023-01-17T06:16:38.924Z,26.17
2023-01-17T06:19:09.520Z,25.13
2023-01-17T06:21:40.082Z,26.75
2023-01-17T06:24:09.588Z,24.60
2023-01-17T06:26:38.660Z,21.40
2023-01-17T06:29:08.073Z,24.40
2023-01-17T06:31:37.258Z,26.42
2023-01-17T06:34:07.104Z,27.60
2023-01-17T06:36:36.203Z,24.92
2023-01-17T06:39:07.127Z,28.55
2023-01-17T06:41:36.226Z,28.27
2023-01-17T06:44:07.521Z,27.10
2023-01-17T06:46:36.852Z,26.83
2023-01-17T06:49:06.252Z,28.50
2023-01-17T06:51:35.384Z,25.38
2023-01-17T06:54:06.198Z,28.00
2023-01-17T06:56:36.115Z,28.00
2023-01-17T06:59:05.988Z,25.88
2023-01-17T07:01:35.740Z,27.58
2023-01-17T07:04:06.129Z,26.10
2023-01-17T07:06:37.692Z,25.13
2023-01-17T07:09:08.689Z,28.98
2023-01-17T07:11:37.852Z,30.73
2023-01-17T07:14:12.634Z,30.15
2023-01-17T07:16:45.310Z,27.55
2023-01-17T07:19:15.333Z,29.27
2023-01-17T07:21:44.478Z,29.05
2023-01-17T07:24:15.429Z,31.65
2023-01-17T07:26:44.847Z,33.65
2023-01-17T07:29:14.195Z,36.97
2023-01-17T07:31:43.431Z,32.08
2023-01-17T07:34:12.916Z,33.00
2023-01-17T07:36:42.095Z,30.83
2023-01-17T07:39:11.989Z,35.65
2023-01-17T07:41:43.310Z,33.55
2023-01-17T07:44:15.288Z,31.10
2023-01-17T07:46:44.522Z,29.52
2023-01-17T07:49:14.619Z,32.35
2023-01-17T07:51:43.951Z,32.30
2023-01-17T07:54:13.840Z,34.42
2023-01-17T07:56:47.108Z,31.42
2023-01-17T07:59:16.920Z,35.30
2023-01-17T08:01:46.316Z,33.50
2023-01-17T08:04:15.773Z,37.05
2023-01-17T08:06:47.663Z,32.80
2023-01-17T08:09:17.202Z,28.50
2023-01-17T08:11:47.793Z,36.78
2023-01-17T08:14:18.177Z,33.35
2023-01-17T08:16:47.263Z,36.67
2023-01-17T08:19:17.393Z,33.88
2023-01-17T08:21:46.527Z,38.47
2023-01-17T08:24:16.758Z,41.28
2023-01-17T08:29:16.486Z,32.53
2023-01-17T08:31:45.743Z,31.60
2023-01-17T08:34:15.266Z,38.70
2023-01-17T08:36:45.483Z,35.50
2023-01-17T08:39:15.232Z,28.48
2023-01-17T08:41:44.413Z,33.38
2023-01-17T08:44:15.861Z,36.53
2023-01-17T08:46:45.530Z,28.95
2023-01-17T08:49:14.911Z,33.22
2023-01-17T08:51:44.080Z,30.58
2023-01-17T08:54:15.295Z,34.47
2023-01-17T08:56:44.622Z,36.97
2023-01-17T08:59:15.796Z,33.08
2023-01-17T09:01:46.072Z,28.42
2023-01-17T09:04:16.642Z,36.10
2023-01-17T09:06:48.361Z,32.70
2023-01-17T09:09:18.518Z,32.15
2023-01-17T09:14:18.917Z,29.15
2023-01-17T09:16:48.561Z,32.70
2023-01-17T09:21:46.974Z,33.15
2023-01-17T09:24:16.563Z,34.28
2023-01-17T09:26:45.785Z,31.83
2023-01-17T09:29:18.803Z,36.75
2023-01-17T09:31:48.795Z,29.70
2023-01-17T09:34:18.705Z,31.75
2023-01-17T09:36:47.908Z,42.28
2023-01-17T09:39:17.436Z,34.03
2023-01-17T09:41:53.594Z,38.53
2023-01-17T09:44:35.022Z,35.40
2023-01-17T09:47:14.095Z,34.65
2023-01-17T09:49:45.764Z,33.75
2023-01-17T09:52:18.874Z,36.42
2023-01-17T09:54:50.404Z,31.33
2023-01-17T09:57:43.645Z,31.48
2023-01-17T10:00:31.786Z,30.02
2023-01-17T10:03:32.280Z,31.63
2023-01-17T10:06:37.215Z,32.92
2023-01-17T10:09:28.847Z,35.33
2023-01-17T10:12:14.807Z,38.85
2023-01-17T10:15:08.675Z,36.35
2023-01-17T10:17:53.775Z,32.72
2023-01-17T10:20:47.752Z,31.95
2023-01-17T10:23:43.399Z,35.63
2023-01-17T10:26:17.365Z,35.28
2023-01-17T10:28:51.235Z,39.13
2023-01-17T10:31:24.084Z,31.00
2023-01-17T10:33:57.089Z,36.22
2023-01-17T10:36:28.992Z,37.15
2023-01-17T10:39:01.968Z,33.58
2023-01-17T10:41:34.378Z,33.80
2023-01-17T10:44:13.268Z,32.22
2023-01-17T10:46:48.546Z,34.28
2023-01-17T10:49:22.160Z,35.28
2023-01-17T10:52:02.047Z,34.00
2023-01-17T10:54:49.556Z,28.17
2023-01-17T10:57:22.985Z,27.98
2023-01-17T10:59:53.368Z,36.53
2023-01-17T11:02:27.217Z,27.30
2023-01-17T11:05:03.516Z,33.95
2023-01-17T11:07:33.723Z,30.95
2023-01-17T11:10:03.050Z,31.35
2023-01-17T11:12:45.172Z,28.90
2023-01-17T11:15:25.992Z,30.13
2023-01-17T11:18:03.941Z,32.45
2023-01-17T11:20:38.936Z,29.08
2023-01-17T11:23:16.027Z,29.63
2023-01-17T11:25:53.392Z,28.02
2023-01-17T11:28:26.751Z,31.08
2023-01-17T11:30:58.453Z,24.52
2023-01-17T11:33:45.233Z,31.60
2023-01-17T11:36:21.289Z,30.52
2023-01-17T11:38:58.227Z,30.73
2023-01-17T11:41:29.331Z,33.42
2023-01-17T11:44:00.474Z,25.60
2023-01-17T11:46:30.769Z,26.67
2023-01-17T11:49:01.626Z,25.83
2023-01-17T11:51:34.748Z,31.20
2023-01-17T11:54:18.138Z,30.33
2023-01-17T11:56:47.693Z,26.58
2023-01-17T11:59:31.751Z,25.80
2023-01-17T12:02:31.852Z,27.30
2023-01-17T12:05:17.375Z,24.70
2023-01-17T12:07:58.539Z,23.30
2023-01-17T12:10:33.896Z,26.13
2023-01-17T12:13:29.196Z,27.45
2023-01-17T12:16:32.870Z,27.15
2023-01-17T12:19:26.482Z,19.65
2023-01-17T12:22:03.866Z,25.25
2023-01-17T12:24:59.508Z,23.23
2023-01-17T12:27:35.837Z,25.60
2023-01-17T12:30:17.189Z,24.08
2023-01-17T12:33:15.725Z,21.70
2023-01-17T12:35:53.065Z,24.50
2023-01-17T12:38:32.828Z,26.30
2023-01-17T12:41:11.465Z,22.05
2023-01-17T12:43:43.051Z,25.88
2023-01-17T12:46:21.380Z,18.20
2023-01-17T12:48:55.354Z,21.80
2023-01-17T12:51:30.410Z,20.70
2023-01-17T12:54:04.579Z,17.60
2023-01-17T12:56:40.801Z,23.60
2023-01-17T12:59:18.267Z,22.83
2023-01-17T13:01:58.059Z,19.58
2023-01-17T13:04:30.764Z,17.63
2023-01-17T13:07:13.048Z,20.08
2023-01-17T13:09:47.287Z,16.60
2023-01-17T13:12:22.085Z,16.10
2023-01-17T13:14:51.365Z,14.82
2023-01-17T13:17:35.438Z,18.95
2023-01-17T13:20:15.564Z,18.52
2023-01-17T13:22:46.839Z,14.77
2023-01-17T13:25:35.086Z,14.77
2023-01-17T13:28:18.902Z,20.43
2023-01-17T13:31:15.484Z,18.08
2023-01-17T13:34:02.101Z,15.45
2023-01-17T13:36:46.431Z,15.30
2023-01-17T13:39:44.076Z,13.07
2023-01-17T13:42:23.846Z,11.73
2023-01-17T13:44:55.299Z,14.80
2023-01-17T13:47:42.500Z,18.65
2023-01-17T13:50:48.649Z,13.63
2023-01-17T13:53:55.042Z,13.55
2023-01-17T13:56:35.894Z,18.33
2023-01-17T13:59:30.707Z,13.80
2023-01-17T14:02:01.689Z,17.75
2023-01-17T14:05:08.203Z,16.83
2023-01-17T14:07:48.029Z,13.98
2023-01-17T14:10:33.689Z,12.10
2023-01-17T14:13:04.338Z,14.02
2023-01-17T14:15:35.947Z,15.63
2023-01-17T14:18:27.795Z,15.32
2023-01-17T14:21:13.742Z,13.50
2023-01-17T14:24:03.997Z,13.95
2023-01-17T14:26:43.968Z,9.45
2023-01-17T14:29:52.246Z,14.43
2023-01-17T14:32:23.910Z,12.40
2023-01-17T14:34:57.192Z,12.88
2023-01-17T14:37:45.196Z,12.40
2023-01-17T14:40:20.729Z,18.00
2023-01-17T14:42:55.519Z,14.45
2023-01-17T14:45:29.722Z,13.48
2023-01-17T14:48:03.496Z,12.27
2023-01-17T14:50:38.553Z,11.20
2023-01-17T14:53:17.634Z,16.02
2023-01-17T14:55:56.789Z,14.40
2023-01-17T14:58:29.198Z,12.60
2023-01-17T15:01:04.356Z,12.88
2023-01-17T15:03:42.857Z,13.93
2023-01-17T15:06:17.975Z,11.90
2023-01-17T15:08:47.900Z,11.13
2023-01-17T15:11:23.878Z,14.63
2023-01-17T15:13:58.039Z,13.20
2023-01-17T15:16:30.920Z,11.20
2023-01-17T15:19:01.139Z,12.05
2023-01-17T15:21:36.939Z,7.30
2023-01-17T15:24:09.312Z,7.40
2023-01-17T15:26:43.430Z,7.40
2023-01-17T15:29:18.722Z,8.90
2023-01-17T15:31:51.718Z,7.72
2023-01-17T15:34:29.487Z,7.43
2023-01-17T15:37:02.522Z,7.70
2023-01-17T15:39:35.141Z,8.10
2023-01-17T15:42:08.983Z,10.15
2023-01-17T15:44:49.369Z,9.13
2023-01-17T15:47:33.127Z,9.10
2023-01-17T15:50:03.834Z,8.88
2023-01-17T15:52:50.381Z,10.77
2023-01-17T15:55:27.560Z,10.45
2023-01-17T15:57:57.288Z,13.88
2023-01-17T16:00:32.666Z,11.48
2023-01-17T16:03:02.361Z,9.10
2023-01-17T16:05:43.568Z,11.20
2023-01-17T16:08:32.800Z,13.73
2023-01-17T16:11:05.525Z,11.60
2023-01-17T16:13:38.725Z,12.02
2023-01-17T16:16:20.901Z,11.60
2023-01-17T16:18:53.820Z,12.73
2023-01-17T16:21:26.192Z,14.43
2023-01-17T16:23:57.614Z,14.07
2023-01-17T16:26:29.077Z,15.00
2023-01-17T16:29:00.067Z,16.15
2023-01-17T16:31:29.300Z,13.07
2023-01-17T16:33:59.346Z,11.13
2023-01-17T16:38:59.115Z,11.85
2023-01-17T16:41:28.606Z,11.90
2023-01-17T16:44:03.477Z,10.73
2023-01-17T16:46:33.426Z,14.55
2023-01-17T16:49:03.227Z,12.80
2023-01-17T16:51:32.763Z,13.27
2023-01-17T16:56:32.831Z,13.85
2023-01-17T16:59:02.327Z,14.07
2023-01-17T17:01:31.477Z,11.57
2023-01-17T17:04:01.149Z,14.45
2023-01-17T17:06:32.217Z,11.65
2023-01-17T17:09:03.175Z,13.13
2023-01-17T17:11:32.706Z,16.35
2023-01-17T17:14:03.061Z,12.70
2023-01-17T17:16:32.949Z,13.60
2023-01-17T17:19:04.887Z,12.25
2023-01-17T17:21:35.369Z,13.65
2023-01-17T17:24:06.823Z,9.63
2023-01-17T17:26:38.128Z,8.82
2023-01-17T17:29:10.512Z,11.38
2023-01-17T17:31:41.151Z,7.95
2023-01-17T17:34:13.520Z,11.85
2023-01-17T17:36:43.569Z,6.40
2023-01-17T17:39:15.880Z,10.88
2023-01-17T17:41:46.693Z,9.38
2023-01-17T17:44:16.496Z,9.80
2023-01-17T17:46:49.663Z,8.88
2023-01-17T17:49:20.397Z,8.77
2023-01-17T17:51:49.622Z,8.52
2023-01-17T17:54:22.092Z,7.10
2023-01-17T17:56:51.781Z,8.02
2023-01-17T17:59:21.218Z,8.40
2023-01-17T18:01:50.663Z,9.07
2023-01-17T18:06:49.371Z,7.10
2023-01-17T18:09:20.412Z,8.05
2023-01-17T18:11:49.645Z,5.88
2023-01-17T18:14:21.102Z,9.23
2023-01-17T18:16:50.870Z,8.00
2023-01-17T18:19:23.307Z,5.70
2023-01-17T18:21:53.933Z,7.03
2023-01-17T18:24:27.671Z,6.95
2023-01-17T18:26:58.193Z,5.28
2023-01-17T18:29:29.062Z,8.25
2023-01-17T18:31:58.686Z,6.22
2023-01-17T18:34:30.050Z,4.78
2023-01-17T18:36:59.916Z,5.40
2023-01-17T18:39:32.233Z,8.20
2023-01-17T18:42:01.740Z,6.10
2023-01-17T18:44:31.331Z,7.63
2023-01-17T18:47:04.552Z,6.93
2023-01-17T18:49:35.587Z,6.55
2023-01-17T18:52:07.990Z,8.73
2023-01-17T18:54:38.958Z,6.88
2023-01-17T18:57:08.086Z,6.30
2023-01-17T18:59:37.573Z,7.20
2023-01-17T19:02:06.942Z,9.48
2023-01-17T19:04:38.243Z,7.70
2023-01-17T19:07:07.535Z,6.90
2023-01-17T19:09:38.616Z,6.20
2023-01-17T19:12:08.160Z,4.20
2023-01-17T19:14:37.565Z,4.43
2023-01-17T19:17:06.766Z,6.43
2023-01-17T19:19:36.195Z,6.93
2023-01-17T19:22:05.257Z,6.93
2023-01-17T19:24:36.047Z,8.35
2023-01-17T19:27:07.200Z,6.72
2023-01-17T19:29:37.077Z,9.55
2023-01-17T19:32:07.447Z,7.72
2023-01-17T19:34:37.342Z,6.38
2023-01-17T19:37:07.389Z,8.68
2023-01-17T19:39:36.738Z,7.13
2023-01-17T19:42:10.029Z,7.93
2023-01-17T19:44:39.486Z,6.30
2023-01-17T19:47:11.221Z,6.80
2023-01-17T19:49:42.437Z,6.68
2023-01-17T19:52:14.485Z,8.05
2023-01-17T19:54:43.941Z,8.55
2023-01-17T19:57:14.396Z,6.25
2023-01-17T19:59:44.091Z,6.22
2023-01-17T20:02:13.435Z,9.02
2023-01-17T20:07:12.361Z,10.68
2023-01-17T20:09:41.828Z,11.25
2023-01-17T20:12:11.941Z,13.30
2023-01-17T20:14:42.677Z,8.57
2023-01-17T20:17:12.227Z,10.88
2023-01-17T20:19:41.599Z,9.43
2023-01-17T20:22:10.865Z,9.27
2023-01-17T20:24:40.467Z,8.45
2023-01-17T20:27:09.608Z,8.68
2023-01-17T20:29:40.904Z,9.27
2023-01-17T20:32:11.679Z,9.70
2023-01-17T20:34:41.491Z,6.35
2023-01-17T20:37:10.697Z,5.35
2023-01-17T20:39:43.598Z,7.18
2023-01-17T20:42:12.894Z,8.40
2023-01-17T20:44:42.576Z,5.25
2023-01-17T20:47:14.052Z,7.70
2023-01-17T20:49:43.788Z,7.72
2023-01-17T20:52:15.353Z,9.75
2023-01-17T20:54:48.751Z,5.43
2023-01-17T20:57:18.264Z,4.95
2023-01-17T20:59:48.562Z,6.53
2023-01-17T21:02:19.457Z,8.00
2023-01-17T21:04:50.054Z,6.80
2023-01-17T21:07:20.029Z,5.68
2023-01-17T21:09:49.786Z,8.25
2023-01-17T21:12:19.043Z,10.48
2023-01-17T21:14:48.459Z,8.50
2023-01-17T21:17:19.281Z,7.13
2023-01-17T21:19:51.138Z,7.25
2023-01-17T21:22:21.078Z,8.68
2023-01-17T21:24:51.274Z,10.40
2023-01-17T21:27:21.672Z,8.57
2023-01-17T21:29:53.016Z,9.15
2023-01-17T21:32:23.637Z,8.98
2023-01-17T21:34:55.351Z,7.40
2023-01-17T21:37:26.102Z,8.98
2023-01-17T21:39:56.999Z,12.80
2023-01-17T21:42:26.374Z,6.68
2023-01-17T21:44:56.177Z,11.27
2023-01-17T21:49:56.634Z,9.05
2023-01-17T21:52:26.217Z,8.02
2023-01-17T21:55:12.835Z,6.88
2023-01-17T21:57:59.754Z,8.13
2023-01-17T22:00:29.421Z,9.80
2023-01-17T22:03:00.003Z,8.95
2023-01-17T22:05:29.725Z,11.52
2023-01-17T22:08:15.297Z,12.02
2023-01-17T22:10:47.720Z,11.52
2023-01-17T22:13:18.496Z,14.15
2023-01-17T22:15:58.511Z,10.18
2023-01-17T22:18:30.833Z,10.05
2023-01-17T22:21:04.927Z,8.70
2023-01-17T22:23:34.465Z,12.60
2023-01-17T22:26:05.516Z,10.13
2023-01-17T22:28:35.539Z,10.23
2023-01-17T22:31:10.805Z,10.73
2023-01-17T22:33:43.628Z,8.93
2023-01-17T22:36:14.984Z,10.93
2023-01-17T22:38:45.428Z,9.40
2023-01-17T22:41:17.056Z,8.80
2023-01-17T22:43:47.876Z,13.60
2023-01-17T22:46:20.644Z,8.10
2023-01-17T22:48:52.212Z,8.90
2023-01-17T22:51:23.891Z,7.88
2023-01-17T22:53:55.310Z,8.60
2023-01-17T22:56:27.635Z,8.73
2023-01-17T22:58:57.151Z,8.18
2023-01-17T23:01:28.873Z,9.85
2023-01-17T23:04:01.377Z,10.20
2023-01-17T23:06:33.276Z,10.10
2023-01-17T23:09:04.863Z,12.77
2023-01-17T23:11:42.753Z,8.60
2023-01-17T23:14:15.790Z,8.77
2023-01-17T23:17:04.464Z,10.32
2023-01-17T23:19:37.295Z,10.38
2023-01-17T23:22:20.237Z,8.15
2023-01-17T23:24:52.591Z,10.20
2023-01-17T23:27:41.741Z,8.50
2023-01-17T23:30:13.625Z,8.83
2023-01-17T23:32:47.124Z,8.68
2023-01-17T23:35:18.965Z,8.85
2023-01-17T23:38:06.564Z,8.77
2023-01-17T23:40:37.752Z,8.32
2023-01-17T23:43:25.364Z,12.02
2023-01-17T23:45:55.612Z,8.00
2023-01-17T23:48:27.322Z,10.30
2023-01-17T23:51:02.363Z,11.50
2023-01-17T23:53:31.856Z,11.35
2023-01-17T23:56:07.723Z,14.88
2023-01-17T23:58:37.084Z,10.73
